Kihnu, Estonia

2:13 PM EET on February 11, 2016 (GMT +0200)
Parnu | | Change Station
CLOSE
Current Station
Airport
Location: Parnu,
Elevation: 46 ft
Nearby Weather Stations

Elev 46 ft 58.42 °N, 24.47 °E | Updated 23 minutes ago

Light Rain
Light Rain
39 °F
Feels Like 35 °F
N
6
Wind Variable Wind from SE

Today
High -- | Low -- °F
--% Chance of Precip.
Yesterday
High -- | Low -- °F
Precip. -- in
Pressure 29.33 in
Visibility 6.2 miles
Clouds Mostly Cloudy 700 ft
Overcast 1100 ft
Windchill 35 °F
Dew Point 37 °F
Humidity 93%
Rainfall 0.00 in
Snow Depth Not available.
8:07 AM 5:10 PM
Waxing Crescent, 11% visible
METAR EEPU 111150Z 14005KT 100V180 9999 -RA BKN007 OVC011 04/03 Q0993
Pressure 29.33 in
Visibility 6.2 miles
Clouds Mostly Cloudy 700 ft
Overcast 1100 ft
Windchill 35 °F
Dew Point 37 °F
Humidity 93%
Rainfall 0.00 in
Snow Depth Not available.
8:07 AM 5:10 PM
Waxing Crescent, 11% visible
METAR EEPU 111150Z 14005KT 100V180 9999 -RA BKN007 OVC011 04/03 Q0993

10-Day Weather Forecast

Almanac

Astronomy

Feb. 11, 2016 Rise Set
Actual Time
Civil Twilight
Nautical Twilight
Astronomical Twilight
Moon
Length of Visible Light
Length of Day
Tomorrow will be .
, % of the Moon is Illuminated

Today's Extremes

Country Highs Country Lows

Community

WunderPhotos

Upload Photos

1,892,035 photos uploaded!

WunderBlog® & News

Nearby

Air Quality

  Air Quality AQ Index Pollutant
Not available.

Snow Depth

Station Depth Elevation

Earthquake Activity

City Distance Mag. Time & Date
Minimum magnitude displayed is 2.5.

Coastal Water Temperatures

Place Temperature

Stations

Nearby Weather Stations

Station Location Temp. Windchill Dew Point Humidity Wind Precip. Elev Updated Type